createdAt,value
2018-09-28T00:01:40.411Z,73.68
2018-09-28T00:04:09.963Z,73.67
2018-09-28T00:06:39.512Z,73.35
2018-09-28T00:09:10.728Z,73.61
2018-09-28T00:11:40.919Z,73.52
2018-09-28T00:14:10.487Z,73.44
2018-09-28T00:16:40.232Z,73.90
2018-09-28T00:19:09.787Z,73.80
2018-09-28T00:21:39.385Z,73.89
2018-09-28T00:24:09.015Z,74.00
2018-09-28T00:26:38.556Z,73.84
2018-09-28T00:29:08.444Z,74.08
2018-09-28T00:31:38.008Z,73.66
2018-09-28T00:34:08.457Z,74.06
2018-09-28T00:36:38.004Z,73.79
2018-09-28T00:39:09.387Z,74.31
2018-09-28T00:41:38.920Z,73.70
2018-09-28T00:44:08.497Z,74.31
2018-09-28T00:46:38.060Z,74.35
2018-09-28T00:49:07.616Z,73.83
2018-09-28T00:51:37.196Z,74.41
2018-09-28T00:54:06.801Z,73.89
2018-09-28T00:56:36.352Z,74.57
2018-09-28T00:59:05.929Z,74.23
2018-09-28T01:01:35.450Z,74.57
2018-09-28T01:04:05.003Z,74.80
2018-09-28T01:06:34.547Z,74.57
2018-09-28T01:09:04.805Z,74.69
2018-09-28T01:11:34.350Z,74.29
2018-09-28T01:14:03.919Z,74.26
2018-09-28T01:16:33.492Z,74.48
2018-09-28T01:19:03.080Z,74.64
2018-09-28T01:21:32.619Z,74.51
2018-09-28T01:24:02.187Z,74.22
2018-09-28T01:26:31.752Z,75.03
2018-09-28T01:29:01.647Z,75.00
2018-09-28T01:31:31.513Z,74.28
2018-09-28T01:34:01.128Z,74.48
2018-09-28T01:36:30.676Z,75.18
2018-09-28T01:39:00.232Z,74.92
2018-09-28T01:41:29.764Z,74.79
2018-09-28T01:43:59.316Z,74.91
2018-09-28T01:46:28.869Z,74.94
2018-09-28T01:48:58.417Z,75.02
2018-09-28T01:51:27.960Z,75.97
2018-09-28T01:53:57.580Z,75.74
2018-09-28T01:56:27.105Z,75.51
2018-09-28T01:58:56.992Z,75.07
2018-09-28T02:01:26.596Z,75.53
2018-09-28T02:03:56.155Z,74.96
2018-09-28T02:06:25.740Z,75.14
2018-09-28T02:08:55.280Z,75.14
2018-09-28T02:11:24.824Z,75.68
2018-09-28T02:13:54.398Z,75.72
2018-09-28T02:16:23.948Z,75.12
2018-09-28T02:18:53.505Z,75.00
2018-09-28T02:21:23.153Z,75.82
2018-09-28T02:23:52.875Z,75.79
2018-09-28T02:26:22.443Z,75.93
2018-09-28T02:28:52.131Z,75.52
2018-09-28T02:31:21.699Z,75.64
2018-09-28T02:33:51.432Z,75.28
2018-09-28T02:36:21.000Z,75.53
2018-09-28T02:38:50.760Z,75.89
2018-09-28T02:41:20.310Z,76.22
2018-09-28T02:43:50.075Z,75.51
2018-09-28T02:46:19.645Z,76.09
2018-09-28T02:48:49.220Z,76.02
2018-09-28T02:51:19.074Z,75.58
2018-09-28T02:53:48.631Z,76.18
2018-09-28T02:56:18.728Z,75.84
2018-09-28T02:58:48.319Z,76.35
2018-09-28T03:01:17.881Z,76.03
2018-09-28T03:03:47.403Z,76.22
2018-09-28T03:06:17.075Z,76.09
2018-09-28T03:08:46.759Z,76.11
2018-09-28T03:11:16.388Z,76.02
2018-09-28T03:13:45.892Z,76.30
2018-09-28T03:16:15.560Z,76.25
2018-09-28T03:18:45.159Z,76.70
2018-09-28T03:21:14.727Z,76.01
2018-09-28T03:23:44.249Z,75.82
2018-09-28T03:26:14.065Z,75.71
2018-09-28T03:28:43.596Z,76.10
2018-09-28T03:31:13.124Z,76.10
2018-09-28T03:33:42.756Z,76.61
2018-09-28T03:36:12.328Z,76.22
2018-09-28T03:38:41.973Z,76.11
2018-09-28T03:41:11.484Z,76.31
2018-09-28T03:43:41.071Z,76.09
2018-09-28T03:46:11.131Z,76.41
2018-09-28T03:48:40.887Z,76.49
2018-09-28T03:51:10.439Z,76.45
2018-09-28T03:53:39.987Z,76.77
2018-09-28T03:56:09.533Z,76.62
2018-09-28T03:58:39.112Z,76.77
2018-09-28T04:01:08.736Z,76.74
2018-09-28T04:03:38.427Z,76.48
2018-09-28T04:06:07.995Z,76.67
2018-09-28T04:08:37.564Z,76.79
2018-09-28T04:11:07.149Z,76.87
2018-09-28T04:13:36.720Z,76.11
2018-09-28T04:16:06.277Z,76.16
2018-09-28T04:18:35.820Z,76.21
2018-09-28T04:21:05.388Z,76.31
2018-09-28T04:23:35.171Z,76.54
2018-09-28T04:26:04.696Z,76.53
2018-09-28T04:28:34.739Z,76.65
2018-09-28T04:31:04.283Z,76.04
2018-09-28T04:33:33.843Z,76.41
2018-09-28T04:36:03.476Z,76.35
2018-09-28T04:38:33.055Z,77.13
2018-09-28T04:41:02.603Z,77.30
2018-09-28T04:43:32.223Z,77.01
2018-09-28T04:46:01.956Z,76.73
2018-09-28T04:48:31.505Z,77.03
2018-09-28T04:51:01.093Z,76.51
2018-09-28T04:53:31.140Z,76.92
2018-09-28T04:56:00.703Z,77.11
2018-09-28T04:58:30.257Z,77.39
2018-09-28T05:00:59.786Z,77.06
2018-09-28T05:03:29.351Z,76.67
2018-09-28T05:05:58.967Z,76.88
2018-09-28T05:08:28.514Z,76.87
2018-09-28T05:10:58.075Z,76.97
2018-09-28T05:13:27.661Z,76.63
2018-09-28T05:15:57.216Z,76.60
2018-09-28T05:18:26.788Z,76.98
2018-09-28T05:20:56.408Z,77.37
2018-09-28T05:23:25.967Z,76.90
2018-09-28T05:25:55.564Z,76.86
2018-09-28T05:28:25.112Z,77.31
2018-09-28T05:30:54.714Z,77.60
2018-09-28T05:33:24.228Z,77.25
2018-09-28T05:35:53.812Z,77.52
2018-09-28T05:38:23.595Z,77.43
2018-09-28T05:40:53.505Z,77.63
2018-09-28T05:43:23.047Z,77.63
2018-09-28T05:45:52.575Z,76.95
2018-09-28T05:48:22.145Z,76.36
2018-09-28T05:50:51.716Z,76.58
2018-09-28T05:53:21.278Z,76.29
2018-09-28T05:55:50.848Z,76.00
2018-09-28T05:58:25.717Z,75.69
2018-09-28T06:01:00.571Z,75.78
2018-09-28T06:03:30.170Z,75.01
2018-09-28T06:06:04.374Z,74.00
2018-09-28T06:08:33.949Z,74.02
2018-09-28T06:11:10.837Z,72.77
2018-09-28T06:13:40.841Z,72.27
2018-09-28T06:16:10.497Z,71.65
2018-09-28T06:18:40.204Z,72.53
2018-09-28T06:21:09.931Z,71.03
2018-09-28T06:23:39.488Z,71.23
2018-09-28T06:26:13.595Z,69.78
2018-09-28T06:28:44.221Z,69.49
2018-09-28T06:31:13.824Z,68.83
2018-09-28T06:33:43.392Z,68.75
2018-09-28T06:36:13.108Z,69.07
2018-09-28T06:38:42.788Z,69.18
2018-09-28T06:41:12.568Z,68.73
2018-09-28T06:43:42.211Z,67.19
2018-09-28T06:46:11.785Z,67.09
2018-09-28T06:48:41.679Z,67.29
2018-09-28T06:51:11.377Z,67.02
2018-09-28T06:53:41.134Z,67.49
2018-09-28T06:56:10.853Z,67.92
2018-09-28T06:58:40.512Z,66.84
2018-09-28T07:01:10.576Z,66.04
2018-09-28T07:03:40.130Z,66.65
2018-09-28T07:06:09.722Z,66.04
2018-09-28T07:08:39.489Z,65.87
2018-09-28T07:11:09.349Z,64.45
2018-09-28T07:13:39.144Z,65.59
2018-09-28T07:16:09.135Z,64.56
2018-09-28T07:18:38.916Z,63.80
2018-09-28T07:21:08.680Z,62.76
2018-09-28T07:23:38.332Z,62.54
2018-09-28T07:26:08.115Z,63.61
2018-09-28T07:28:37.680Z,63.11
2018-09-28T07:31:07.332Z,63.72
2018-09-28T07:33:36.906Z,63.15
2018-09-28T07:36:06.608Z,62.11
2018-09-28T07:38:36.216Z,61.10
2018-09-28T07:41:05.783Z,61.46
2018-09-28T07:43:35.335Z,62.48
2018-09-28T07:46:04.900Z,63.20
2018-09-28T07:48:34.448Z,63.60
2018-09-28T07:51:03.988Z,62.23
2018-09-28T07:53:33.750Z,62.43
2018-09-28T07:56:03.297Z,62.10
2018-09-28T07:58:32.867Z,61.44
2018-09-28T08:01:02.439Z,60.15
2018-09-28T08:03:32.004Z,58.86
2018-09-28T08:06:01.594Z,59.40
2018-09-28T08:08:31.146Z,58.52
2018-09-28T08:11:00.684Z,59.49
2018-09-28T08:13:30.231Z,58.92
2018-09-28T08:15:59.763Z,58.05
2018-09-28T08:18:29.352Z,57.94
2018-09-28T08:20:58.903Z,56.57
2018-09-28T08:23:28.506Z,56.73
2018-09-28T08:25:58.260Z,56.81
2018-09-28T08:28:27.848Z,56.22
2018-09-28T08:30:57.643Z,55.84
2018-09-28T08:33:27.223Z,55.27
2018-09-28T08:35:56.773Z,56.12
2018-09-28T08:38:26.361Z,56.06
2018-09-28T08:40:55.924Z,55.92
2018-09-28T08:43:25.497Z,56.34
2018-09-28T08:45:55.281Z,56.13
2018-09-28T08:48:24.824Z,55.62
2018-09-28T08:50:54.416Z,54.92
2018-09-28T08:53:23.967Z,54.66
2018-09-28T08:55:53.535Z,54.07
2018-09-28T08:58:23.100Z,53.27
2018-09-28T09:00:52.738Z,54.07
2018-09-28T09:03:22.328Z,54.29
2018-09-28T09:05:51.863Z,52.93
2018-09-28T09:08:21.384Z,53.23
2018-09-28T09:10:50.980Z,53.96
2018-09-28T09:13:20.591Z,54.12
2018-09-28T09:15:50.135Z,53.22
2018-09-28T09:18:19.745Z,52.94
2018-09-28T09:20:49.486Z,53.10
2018-09-28T09:23:19.112Z,52.84
2018-09-28T09:25:48.712Z,53.00
2018-09-28T09:28:18.284Z,52.05
2018-09-28T09:30:47.971Z,52.54
2018-09-28T09:33:17.557Z,53.51
2018-09-28T09:35:47.212Z,52.12
2018-09-28T09:38:16.796Z,51.97
2018-09-28T09:40:46.424Z,52.33
2018-09-28T09:43:15.988Z,52.14
2018-09-28T09:45:45.584Z,52.10
2018-09-28T09:48:15.130Z,53.00
2018-09-28T09:50:44.678Z,52.32
2018-09-28T09:53:14.257Z,51.35
2018-09-28T09:55:43.800Z,51.98
2018-09-28T09:58:13.620Z,51.34
2018-09-28T10:00:48.680Z,50.83
2018-09-28T10:03:23.427Z,51.12
2018-09-28T10:05:52.984Z,51.74
2018-09-28T10:08:22.559Z,50.85
2018-09-28T10:10:52.132Z,50.16
2018-09-28T10:13:21.879Z,49.29
2018-09-28T10:15:51.517Z,50.75
2018-09-28T10:18:21.039Z,50.16
2018-09-28T10:20:51.022Z,50.84
2018-09-28T10:23:22.191Z,50.17
2018-09-28T10:25:52.048Z,49.26
2018-09-28T10:28:22.047Z,49.94
2018-09-28T10:30:53.156Z,48.85
2018-09-28T10:33:22.911Z,49.47
2018-09-28T10:35:52.891Z,48.75
2018-09-28T10:38:23.404Z,49.12
2018-09-28T10:40:54.217Z,48.48
2018-09-28T10:43:23.994Z,48.98
2018-09-28T10:45:53.989Z,48.83
2018-09-28T10:48:23.533Z,48.94
2018-09-28T10:50:53.151Z,48.60
2018-09-28T10:53:22.922Z,48.13
2018-09-28T10:55:52.490Z,48.39
2018-09-28T10:58:22.388Z,49.05
2018-09-28T11:00:52.125Z,48.00
2018-09-28T11:03:21.736Z,48.57
2018-09-28T11:05:51.452Z,47.64
2018-09-28T11:08:21.079Z,48.48
2018-09-28T11:10:50.927Z,47.71
2018-09-28T11:13:20.616Z,47.04
2018-09-28T11:15:50.253Z,48.03
2018-09-28T11:18:19.949Z,46.82
2018-09-28T11:20:49.595Z,47.36
2018-09-28T11:23:19.126Z,47.69
2018-09-28T11:25:48.971Z,46.34
2018-09-28T11:28:18.495Z,46.00
2018-09-28T11:30:48.079Z,45.67
2018-09-28T11:33:17.747Z,46.54
2018-09-28T11:35:47.471Z,45.79
2018-09-28T11:38:17.042Z,47.13
2018-09-28T11:40:46.551Z,47.06
2018-09-28T11:43:16.163Z,45.67
2018-09-28T11:45:45.932Z,45.77
2018-09-28T11:48:15.620Z,45.79
2018-09-28T11:50:45.147Z,45.68
2018-09-28T11:53:14.719Z,44.59
2018-09-28T11:55:44.288Z,44.12
2018-09-28T11:58:13.842Z,45.62
2018-09-28T12:00:43.399Z,45.70
2018-09-28T12:03:13.015Z,44.29
2018-09-28T12:05:42.684Z,45.09
2018-09-28T12:08:12.275Z,43.78
2018-09-28T12:10:41.841Z,43.09
2018-09-28T12:13:11.370Z,43.01
2018-09-28T12:15:41.806Z,44.57
2018-09-28T12:18:11.525Z,44.01
2018-09-28T12:20:41.316Z,44.69
2018-09-28T12:23:10.885Z,44.63
2018-09-28T12:25:40.403Z,44.33
2018-09-28T12:28:10.167Z,44.88
2018-09-28T12:30:39.814Z,44.85
2018-09-28T12:33:09.548Z,45.01
2018-09-28T12:35:39.321Z,45.69
2018-09-28T12:38:09.047Z,45.21
2018-09-28T12:40:38.605Z,45.50
2018-09-28T12:43:08.817Z,45.38
2018-09-28T12:45:38.589Z,45.09
2018-09-28T12:48:08.241Z,44.64
2018-09-28T12:50:37.838Z,45.31
2018-09-28T12:53:07.611Z,44.28
2018-09-28T12:55:37.210Z,44.54
2018-09-28T12:58:06.928Z,44.77
2018-09-28T13:00:36.573Z,44.92
2018-09-28T13:03:06.434Z,44.46
2018-09-28T13:05:36.015Z,44.21
2018-09-28T13:08:05.670Z,43.88
2018-09-28T13:10:35.419Z,42.68
2018-09-28T13:13:05.228Z,41.73
2018-09-28T13:15:34.794Z,42.37
2018-09-28T13:18:04.344Z,43.17
2018-09-28T13:20:33.977Z,43.04
2018-09-28T13:23:04.012Z,42.81
2018-09-28T13:25:33.592Z,42.68
2018-09-28T13:28:03.173Z,43.50
2018-09-28T13:30:32.810Z,41.46
2018-09-28T13:33:02.534Z,42.48
2018-09-28T13:35:33.857Z,42.20
2018-09-28T13:38:03.467Z,40.29
2018-09-28T13:40:33.067Z,39.16
2018-09-28T13:43:02.680Z,39.03
2018-09-28T13:45:32.330Z,39.92
2018-09-28T13:48:02.168Z,40.27
2018-09-28T13:50:31.997Z,39.94
2018-09-28T13:53:01.732Z,40.91
2018-09-28T13:55:31.324Z,40.94
2018-09-28T13:58:00.864Z,41.25
2018-09-28T14:00:30.432Z,40.67
2018-09-28T14:02:59.998Z,41.04
2018-09-28T14:05:29.594Z,41.18
2018-09-28T14:07:59.565Z,40.49
2018-09-28T14:10:29.218Z,40.49
2018-09-28T14:12:58.897Z,40.77
2018-09-28T14:15:28.523Z,41.46
2018-09-28T14:17:58.075Z,41.54
2018-09-28T14:20:27.705Z,41.42
2018-09-28T14:22:57.428Z,41.94
2018-09-28T14:25:27.049Z,42.43
2018-09-28T14:27:56.645Z,41.98
2018-09-28T14:30:26.390Z,43.55
2018-09-28T14:32:56.492Z,43.72
2018-09-28T14:35:26.106Z,44.66
2018-09-28T14:37:55.636Z,45.36
2018-09-28T14:40:25.277Z,45.52
2018-09-28T14:42:55.220Z,44.30
2018-09-28T14:45:24.851Z,44.31
2018-09-28T14:47:54.393Z,44.67
2018-09-28T14:50:24.019Z,45.10
2018-09-28T14:52:53.783Z,45.66
2018-09-28T14:55:23.747Z,45.74
2018-09-28T14:57:53.318Z,45.83
2018-09-28T15:00:23.232Z,46.04
2018-09-28T15:02:52.947Z,46.56
2018-09-28T15:05:22.809Z,47.79
2018-09-28T15:07:52.396Z,47.31
2018-09-28T15:10:22.081Z,48.00
2018-09-28T15:12:51.823Z,47.49
2018-09-28T15:15:21.429Z,47.82
2018-09-28T15:17:51.341Z,48.54
2018-09-28T15:20:20.898Z,48.18
2018-09-28T15:22:50.493Z,48.63
2018-09-28T15:25:20.276Z,48.72
2018-09-28T15:27:49.873Z,48.75
2018-09-28T15:30:19.602Z,49.27
2018-09-28T15:32:49.273Z,48.39
2018-09-28T15:35:18.949Z,48.40
2018-09-28T15:37:59.255Z,48.66
2018-09-28T15:40:29.293Z,49.31
2018-09-28T15:42:59.416Z,49.38
2018-09-28T15:45:32.144Z,49.90
2018-09-28T15:48:04.097Z,49.30
2018-09-28T15:50:36.332Z,49.35
2018-09-28T15:53:07.568Z,49.66
2018-09-28T15:55:38.343Z,49.96
2018-09-28T15:58:11.224Z,50.25
2018-09-28T16:00:42.695Z,50.40
2018-09-28T16:03:16.215Z,50.31
2018-09-28T16:05:46.039Z,50.13
2018-09-28T16:08:17.252Z,50.13
2018-09-28T16:10:47.873Z,49.80
2018-09-28T16:13:18.575Z,49.02
2018-09-28T16:15:48.223Z,49.08
2018-09-28T16:18:17.764Z,49.16
2018-09-28T16:20:47.510Z,48.76
2018-09-28T16:23:17.080Z,48.63
2018-09-28T16:25:46.691Z,48.64
2018-09-28T16:28:16.236Z,48.27
2018-09-28T16:30:45.809Z,48.55
2018-09-28T16:33:15.431Z,49.19
2018-09-28T16:35:45.046Z,48.66
2018-09-28T16:38:14.803Z,48.50
2018-09-28T16:40:44.452Z,48.60
2018-09-28T16:43:14.074Z,48.80
2018-09-28T16:45:43.665Z,48.46
2018-09-28T16:48:13.397Z,48.17
2018-09-28T16:50:42.946Z,48.66
2018-09-28T16:53:12.905Z,48.30
2018-09-28T16:55:42.849Z,47.35
2018-09-28T16:58:12.428Z,47.48
2018-09-28T17:00:42.059Z,47.23
2018-09-28T17:03:11.611Z,47.33
2018-09-28T17:05:42.430Z,47.28
2018-09-28T17:08:12.233Z,47.22
2018-09-28T17:10:42.075Z,47.49
2018-09-28T17:13:12.150Z,47.55
2018-09-28T17:15:41.853Z,48.47
2018-09-28T17:18:11.472Z,48.59
2018-09-28T17:20:41.198Z,49.60
2018-09-28T17:23:10.790Z,50.30
2018-09-28T17:25:40.524Z,50.84
2018-09-28T17:28:10.226Z,52.23
2018-09-28T17:30:40.016Z,53.18
2018-09-28T17:33:09.609Z,53.49
2018-09-28T17:35:39.341Z,53.26
2018-09-28T17:38:11.324Z,54.02
2018-09-28T17:40:40.988Z,54.31
2018-09-28T17:43:10.572Z,55.04
2018-09-28T17:45:40.251Z,55.44
2018-09-28T17:48:09.806Z,55.97
2018-09-28T17:50:39.492Z,57.01
2018-09-28T17:53:09.101Z,57.13
2018-09-28T17:55:38.691Z,56.75
2018-09-28T17:58:08.390Z,57.99
2018-09-28T18:00:38.063Z,57.77
2018-09-28T18:03:08.233Z,58.03
2018-09-28T18:05:37.854Z,58.15
2018-09-28T18:08:07.927Z,58.58
2018-09-28T18:10:37.683Z,59.17
2018-09-28T18:13:07.375Z,59.74
2018-09-28T18:15:37.011Z,60.67
2018-09-28T18:18:07.142Z,60.88
2018-09-28T18:20:36.750Z,60.71
2018-09-28T18:23:06.923Z,61.77
2018-09-28T18:25:36.553Z,61.29
2018-09-28T18:28:06.243Z,61.74
2018-09-28T18:30:35.865Z,61.78
2018-09-28T18:33:05.899Z,62.35
2018-09-28T18:35:35.521Z,62.92
2018-09-28T18:38:05.189Z,63.09
2018-09-28T18:40:34.939Z,63.78
2018-09-28T18:43:04.557Z,63.85
2018-09-28T18:45:34.211Z,63.95
2018-09-28T18:48:03.864Z,63.87
2018-09-28T18:50:33.552Z,64.42
2018-09-28T18:53:03.177Z,64.18
2018-09-28T18:55:32.846Z,64.15
2018-09-28T18:58:09.272Z,65.00
2018-09-28T19:00:38.951Z,64.79
2018-09-28T19:03:08.564Z,64.42
2018-09-28T19:05:38.392Z,64.72
2018-09-28T19:08:08.348Z,64.58
2018-09-28T19:10:37.967Z,65.61
2018-09-28T19:13:08.036Z,65.55
2018-09-28T19:15:37.802Z,66.91
2018-09-28T19:18:07.472Z,67.85
2018-09-28T19:20:37.197Z,68.64
2018-09-28T19:23:06.874Z,69.27
2018-09-28T19:25:36.504Z,70.40
2018-09-28T19:28:06.195Z,70.60
2018-09-28T19:30:35.952Z,70.74
2018-09-28T19:33:05.786Z,71.48
2018-09-28T19:35:35.647Z,71.39
2018-09-28T19:38:05.761Z,71.58
2018-09-28T19:40:38.935Z,72.25
2018-09-28T19:43:08.555Z,72.52
2018-09-28T19:45:38.179Z,72.76
2018-09-28T19:48:07.816Z,73.16
2018-09-28T19:50:37.516Z,73.17
2018-09-28T19:53:07.411Z,73.56
2018-09-28T19:55:37.130Z,74.15
2018-09-28T19:58:06.592Z,74.51
2018-09-28T20:00:36.207Z,75.93
2018-09-28T20:03:06.272Z,77.51
2018-09-28T20:05:35.904Z,79.21
2018-09-28T20:08:05.485Z,79.35
2018-09-28T20:10:35.374Z,80.30
2018-09-28T20:13:04.960Z,80.46
2018-09-28T20:15:34.555Z,82.06
2018-09-28T20:18:04.180Z,81.52
2018-09-28T20:20:33.743Z,80.68
2018-09-28T20:23:03.360Z,79.19
2018-09-28T20:25:32.947Z,79.88
2018-09-28T20:28:02.600Z,79.73
2018-09-28T20:30:32.269Z,79.14
2018-09-28T20:33:01.825Z,77.90
2018-09-28T20:35:31.666Z,76.86
2018-09-28T20:38:01.233Z,77.34
2018-09-28T20:40:30.884Z,76.21
2018-09-28T20:43:00.488Z,77.32
2018-09-28T20:45:30.211Z,76.02
2018-09-28T20:47:59.836Z,75.37
2018-09-28T20:50:29.533Z,74.90
2018-09-28T20:52:59.292Z,74.77
2018-09-28T20:55:29.194Z,74.09
2018-09-28T20:57:59.055Z,73.53
2018-09-28T21:03:25.687Z,73.18
2018-09-28T21:05:55.268Z,72.73
2018-09-28T21:08:24.836Z,73.20
2018-09-28T21:10:54.436Z,73.63
2018-09-28T21:13:24.035Z,72.16
2018-09-28T21:15:53.832Z,72.04
2018-09-28T21:18:23.440Z,70.73
2018-09-28T21:20:53.074Z,70.23
2018-09-28T21:23:22.664Z,69.81
2018-09-28T21:25:52.343Z,69.26
2018-09-28T21:28:21.953Z,69.04
2018-09-28T21:30:51.568Z,69.30
2018-09-28T21:33:21.441Z,68.63
2018-09-28T21:35:51.075Z,67.87
2018-09-28T21:38:20.654Z,66.75
2018-09-28T21:40:50.293Z,66.83
2018-09-28T21:43:19.839Z,67.95
2018-09-28T21:45:49.432Z,68.68
2018-09-28T21:48:19.002Z,66.90
2018-09-28T21:50:48.606Z,67.45
2018-09-28T21:53:18.200Z,65.94
2018-09-28T21:55:47.792Z,64.92
2018-09-28T21:58:17.394Z,64.90
2018-09-28T22:00:50.998Z,65.97
2018-09-28T22:03:20.606Z,65.45
2018-09-28T22:05:50.172Z,66.31
2018-09-28T22:08:19.739Z,63.49
2018-09-28T22:10:49.339Z,61.11
2018-09-28T22:13:19.159Z,60.79
2018-09-28T22:15:48.846Z,59.14
2018-09-28T22:18:18.436Z,59.32
2018-09-28T22:20:48.051Z,60.24
2018-09-28T22:23:17.667Z,60.53
2018-09-28T22:25:47.203Z,59.81
2018-09-28T22:28:16.787Z,61.23
2018-09-28T22:30:46.402Z,58.25
2018-09-28T22:33:15.963Z,58.36
2018-09-28T22:35:45.543Z,57.42
2018-09-28T22:38:15.069Z,57.93
2018-09-28T22:40:44.659Z,58.26
2018-09-28T22:43:14.463Z,57.89
2018-09-28T22:45:44.058Z,58.51
2018-09-28T22:48:13.918Z,58.79
2018-09-28T22:50:43.495Z,59.37
2018-09-28T22:53:13.277Z,57.90
2018-09-28T22:55:43.235Z,57.18
2018-09-28T22:58:12.774Z,58.08
2018-09-28T23:00:42.659Z,56.93
2018-09-28T23:03:12.187Z,58.60
2018-09-28T23:05:42.141Z,58.17
2018-09-28T23:08:11.683Z,57.81
2018-09-28T23:10:41.417Z,58.31
2018-09-28T23:13:11.139Z,57.87
2018-09-28T23:15:40.715Z,58.18
2018-09-28T23:18:10.297Z,57.69
2018-09-28T23:20:40.242Z,58.03
2018-09-28T23:23:09.800Z,58.75
2018-09-28T23:25:39.336Z,57.69
2018-09-28T23:28:09.054Z,57.59
2018-09-28T23:30:38.592Z,57.91
2018-09-28T23:33:08.133Z,56.47
2018-09-28T23:35:38.112Z,56.00
2018-09-28T23:38:07.754Z,56.46
2018-09-28T23:40:37.499Z,57.02
2018-09-28T23:43:07.203Z,57.85
2018-09-28T23:45:36.723Z,57.77
2018-09-28T23:48:06.571Z,58.03
2018-09-28T23:50:36.208Z,56.67
2018-09-28T23:53:05.868Z,55.94
2018-09-28T23:55:35.409Z,56.02
2018-09-28T23:58:05.415Z,54.92
